Time;durP1;ratioP1;P1;durP2;ratioP2;P2;SDS_P1;SDS_P2;PMS_P1;PMS_P2;Temp;Humidity;BMP_temperature;BMP_pressure;BME280_temperature;BME280_humidity;BME280_pressure;Samples;Min_cycle;Max_cycle;Signal;HPM_P1;HPM_P2
2022/09/28 04:02:14;;;;;;;3.60;1.30;;;10.30;99.90;;;;;;5146350;23;20494;-63
2022/09/28 04:04:41;;;;;;;1.30;1.20;;;10.30;99.90;;;;;;4975609;28;20451;-63
2022/09/28 04:07:07;;;;;;;2.97;1.40;;;10.30;99.90;;;;;;4975603;28;21003;-63
2022/09/28 04:09:34;;;;;;;2.00;1.00;;;10.30;99.90;;;;;;4975664;28;20501;-64
2022/09/28 04:12:01;;;;;;;4.67;1.27;;;10.30;99.90;;;;;;4975474;28;20497;-63
2022/09/28 04:14:28;;;;;;;3.63;1.23;;;10.30;99.90;;;;;;4975687;28;20454;-64
2022/09/28 04:16:55;;;;;;;1.63;1.53;;;10.30;99.90;;;;;;4976402;28;20568;-64
2022/09/28 04:19:23;;;;;;;5.77;1.40;;;10.30;99.90;;;;;;4975435;28;20455;-63
2022/09/28 04:21:50;;;;;;;4.03;1.30;;;10.30;99.90;;;;;;4975321;28;20541;-63
2022/09/28 04:24:17;;;;;;;1.93;1.20;;;10.30;99.90;;;;;;4975385;28;20455;-64
2022/09/28 04:26:44;;;;;;;5.30;1.80;;;10.30;99.90;;;;;;4974966;28;21008;-64
2022/09/28 04:29:15;;;;;;;1.67;1.53;;;10.40;99.90;;;;;;4975473;28;20513;-64
2022/09/28 04:31:45;;;;;;;4.07;1.80;;;10.40;99.90;;;;;;4975622;28;20565;-64
2022/09/28 04:34:13;;;;;;;2.20;1.77;;;10.40;99.90;;;;;;4984664;28;20466;-64
2022/09/28 04:36:41;;;;;;;2.93;1.60;;;10.40;99.90;;;;;;4982260;28;20531;-64
2022/09/28 04:39:08;;;;;;;2.27;1.53;;;10.40;99.90;;;;;;4981054;28;20454;-63
2022/09/28 04:41:34;;;;;;;2.30;1.53;;;10.40;99.90;;;;;;4975715;28;20486;-64
2022/09/28 04:44:01;;;;;;;2.60;1.50;;;10.40;99.90;;;;;;4975376;28;20466;-64
2022/09/28 04:46:28;;;;;;;2.73;1.50;;;10.40;99.90;;;;;;4975077;28;20506;-64
2022/09/28 04:48:55;;;;;;;2.70;1.60;;;10.40;99.90;;;;;;4975190;28;20490;-63
2022/09/28 04:51:22;;;;;;;2.40;1.50;;;10.40;99.90;;;;;;4974692;28;20474;-64
2022/09/28 04:53:50;;;;;;;3.37;1.37;;;10.40;99.90;;;;;;4975078;28;20454;-64
2022/09/28 04:56:18;;;;;;;3.20;1.63;;;10.40;99.90;;;;;;4974752;28;20513;-64
2022/09/28 04:58:44;;;;;;;3.97;1.40;;;10.40;99.90;;;;;;4975029;28;20455;-64
2022/09/28 05:01:13;;;;;;;2.33;1.60;;;10.40;99.90;;;;;;4974739;28;20525;-63
2022/09/28 05:03:41;;;;;;;2.80;1.40;;;10.40;99.90;;;;;;4975016;28;20455;-64
2022/09/28 05:06:08;;;;;;;5.20;1.77;;;10.40;99.90;;;;;;4974958;28;20459;-65
2022/09/28 05:08:35;;;;;;;3.37;1.07;;;10.40;99.90;;;;;;4974936;28;20858;-64
2022/09/28 05:11:06;;;;;;;3.77;1.20;;;10.40;99.90;;;;;;4974806;28;20845;-64
2022/09/28 05:13:34;;;;;;;7.27;1.33;;;10.40;99.90;;;;;;4977317;28;20446;-63
2022/09/28 05:16:01;;;;;;;3.23;1.30;;;10.40;99.90;;;;;;4979097;28;20454;-64
2022/09/28 05:18:28;;;;;;;2.97;1.60;;;10.30;99.90;;;;;;4975118;28;20458;-64
2022/09/28 05:20:55;;;;;;;4.20;1.43;;;10.30;99.90;;;;;;4974343;28;20486;-64
2022/09/28 05:23:21;;;;;;;3.97;1.83;;;10.30;99.90;;;;;;4974501;28;20803;-63
2022/09/28 05:25:48;;;;;;;1.57;1.40;;;10.30;99.90;;;;;;4974763;28;20459;-65
2022/09/28 05:28:26;;;;;;;2.00;1.33;;;10.30;99.90;;;;;;4974821;28;20469;-65
2022/09/28 05:30:53;;;;;;;2.20;1.33;;;10.30;99.90;;;;;;4974655;28;20961;-64
2022/09/28 05:33:20;;;;;;;1.90;1.60;;;10.30;99.90;;;;;;4974702;28;20843;-64
2022/09/28 05:35:46;;;;;;;2.77;1.73;;;10.30;99.90;;;;;;4976228;28;20461;-64
2022/09/28 05:38:13;;;;;;;2.23;1.37;;;10.30;99.90;;;;;;4978235;28;20466;-64
2022/09/28 05:40:40;;;;;;;3.37;1.60;;;10.20;99.90;;;;;;4978047;28;20485;-63
2022/09/28 05:43:06;;;;;;;4.33;1.73;;;10.20;99.90;;;;;;4978157;28;20459;-63
2022/09/28 05:45:34;;;;;;;3.20;1.63;;;10.20;99.90;;;;;;4978328;28;20509;-65
2022/09/28 05:48:01;;;;;;;1.83;1.30;;;10.20;99.90;;;;;;4978266;28;20869;-64
2022/09/28 05:50:28;;;;;;;1.43;1.33;;;10.20;99.90;;;;;;4978178;28;20463;-64
2022/09/28 05:52:59;;;;;;;2.53;1.70;;;10.10;99.90;;;;;;4978187;28;20525;-63
2022/09/28 05:55:26;;;;;;;2.83;1.73;;;10.20;99.90;;;;;;4978264;28;20451;-64
2022/09/28 05:57:53;;;;;;;3.30;2.00;;;10.10;99.90;;;;;;4978302;28;20465;-63
2022/09/28 06:00:19;;;;;;;3.30;1.80;;;10.10;99.90;;;;;;4977643;28;20491;-63
2022/09/28 06:02:57;;;;;;;3.70;2.03;;;10.10;99.90;;;;;;4977694;28;20829;-63
2022/09/28 06:05:24;;;;;;;3.10;2.73;;;10.20;99.90;;;;;;4977677;28;20438;-63
2022/09/28 06:07:50;;;;;;;1.90;1.80;;;10.20;99.90;;;;;;4977647;28;20802;-63
2022/09/28 06:10:17;;;;;;;2.60;2.50;;;10.20;99.90;;;;;;4977556;28;20458;-63
2022/09/28 06:12:46;;;;;;;4.90;2.47;;;10.20;99.90;;;;;;4977611;28;20486;-63
2022/09/28 06:15:13;;;;;;;3.47;2.63;;;10.20;99.90;;;;;;4980566;28;20451;-63
2022/09/28 06:17:40;;;;;;;5.13;2.87;;;10.20;99.90;;;;;;4981061;28;20486;-63
2022/09/28 06:20:09;;;;;;;3.23;2.50;;;10.30;99.90;;;;;;4977603;28;20455;-63
2022/09/28 06:22:36;;;;;;;2.53;2.33;;;10.30;99.90;;;;;;4977327;28;20478;-63
2022/09/28 06:25:03;;;;;;;6.47;3.23;;;10.40;99.90;;;;;;4977453;28;20871;-63
2022/09/28 06:27:29;;;;;;;4.00;2.93;;;10.40;99.90;;;;;;4977129;28;20947;-63
2022/09/28 06:29:56;;;;;;;4.97;3.30;;;10.50;99.90;;;;;;4977285;28;20458;-63
2022/09/28 06:32:23;;;;;;;5.50;4.20;;;10.50;99.90;;;;;;4977175;28;20549;-63
2022/09/28 06:34:49;;;;;;;4.80;4.40;;;10.50;99.90;;;;;;4977579;28;20462;-63
2022/09/28 06:37:17;;;;;;;4.80;4.40;;;10.50;99.90;;;;;;4977868;28;20517;-63
2022/09/28 06:39:44;;;;;;;8.20;5.20;;;10.50;99.90;;;;;;4978589;28;20478;-63
2022/09/28 06:42:10;;;;;;;8.70;5.43;;;10.50;99.90;;;;;;4978411;28;20486;-63
2022/09/28 06:44:37;;;;;;;8.00;4.70;;;10.50;99.90;;;;;;4977969;28;20809;-63
2022/09/28 06:47:04;;;;;;;7.70;4.77;;;10.60;99.90;;;;;;4976940;28;20451;-63
2022/09/28 06:49:30;;;;;;;7.27;4.30;;;10.60;99.90;;;;;;4979647;28;20790;-63
2022/09/28 06:51:57;;;;;;;4.57;3.87;;;10.60;99.90;;;;;;4979717;28;20477;-64
2022/09/28 06:54:25;;;;;;;5.77;4.07;;;10.60;99.90;;;;;;4976650;28;20938;-63
2022/09/28 06:56:52;;;;;;;4.70;4.30;;;10.60;99.90;;;;;;4976440;28;20934;-63
2022/09/28 06:59:19;;;;;;;7.30;4.80;;;10.60;99.90;;;;;;4976708;28;20463;-63
2022/09/28 07:01:45;;;;;;;6.37;4.97;;;10.60;99.90;;;;;;4976179;28;20586;-63
2022/09/28 07:04:12;;;;;;;5.13;4.67;;;10.60;99.90;;;;;;4977344;28;20463;-63
2022/09/28 07:06:39;;;;;;;5.17;4.67;;;10.60;99.90;;;;;;4976801;28;20513;-63
2022/09/28 07:09:06;;;;;;;5.40;4.90;;;10.60;99.90;;;;;;4976585;28;20812;-64
2022/09/28 07:11:39;;;;;;;5.30;4.53;;;10.70;99.90;;;;;;4976324;28;20479;-63
2022/09/28 07:14:08;;;;;;;22.27;7.30;;;10.80;99.90;;;;;;4976114;28;20985;-63
2022/09/28 07:16:36;;;;;;;10.10;6.83;;;10.80;99.90;;;;;;4976448;28;20463;-63
2022/09/28 07:19:02;;;;;;;7.43;6.53;;;10.90;99.90;;;;;;4976297;28;20554;-63
2022/09/28 07:21:29;;;;;;;9.83;5.70;;;11.10;99.90;;;;;;4976234;28;20489;-63
2022/09/28 07:23:56;;;;;;;6.63;5.90;;;11.20;99.90;;;;;;4976257;28;20881;-64
2022/09/28 07:26:24;;;;;;;5.87;5.10;;;11.30;99.90;;;;;;4975898;28;20513;-63
2022/09/28 07:28:54;;;;;;;6.33;5.10;;;11.30;99.90;;;;;;4976223;28;20481;-64
2022/09/28 07:31:23;;;;;;;6.83;4.80;;;11.40;99.90;;;;;;4975923;28;20467;-63
2022/09/28 07:33:52;;;;;;;5.37;4.87;;;11.50;99.90;;;;;;4975609;28;20938;-63
2022/09/28 07:36:19;;;;;;;4.23;3.80;;;11.50;99.90;;;;;;4976058;28;20583;-63
2022/09/28 07:38:46;;;;;;;4.60;4.20;;;11.50;99.90;;;;;;4976057;28;20455;-63
2022/09/28 07:41:13;;;;;;;4.50;4.10;;;11.60;99.90;;;;;;4975415;28;20889;-63
2022/09/28 07:43:40;;;;;;;5.27;4.80;;;11.60;99.90;;;;;;4975836;28;20485;-63
2022/09/28 07:46:10;;;;;;;10.30;5.00;;;11.60;99.90;;;;;;4975435;28;20945;-63
2022/09/28 07:48:39;;;;;;;5.07;4.00;;;11.70;99.90;;;;;;4975883;28;20478;-63
2022/09/28 07:51:06;;;;;;;6.17;3.93;;;11.80;99.90;;;;;;4975565;28;20479;-63
2022/09/28 07:53:32;;;;;;;6.40;3.83;;;11.90;99.90;;;;;;4975974;28;20455;-63
2022/09/28 07:56:06;;;;;;;5.77;3.30;;;11.90;99.90;;;;;;4975642;28;20462;-63
2022/09/28 07:58:33;;;;;;;5.10;3.90;;;11.90;99.90;;;;;;4975939;28;20447;-63
2022/09/28 08:01:04;;;;;;;7.20;4.40;;;11.90;99.90;;;;;;4975320;28;20482;-63
2022/09/28 08:03:32;;;;;;;7.90;4.67;;;11.90;99.90;;;;;;4975655;28;20440;-63
2022/09/28 08:06:00;;;;;;;4.90;4.03;;;12.00;99.90;;;;;;4975790;28;20462;-63
2022/09/28 08:08:28;;;;;;;6.20;4.07;;;12.00;99.90;;;;;;4975397;28;20459;-63
2022/09/28 08:10:55;;;;;;;5.67;4.80;;;12.10;99.90;;;;;;4975329;28;20474;-63
2022/09/28 08:13:24;;;;;;;6.27;5.60;;;12.20;99.90;;;;;;4975382;28;20454;-63
2022/09/28 08:15:51;;;;;;;6.60;4.57;;;12.40;99.90;;;;;;4975428;28;20494;-64
2022/09/28 08:18:18;;;;;;;5.23;3.93;;;12.50;99.90;;;;;;4975225;28;20462;-64
2022/09/28 08:23:30;;;;;;;8.80;4.20;;;12.60;99.90;;;;;;4975256;28;20458;-64
2022/09/28 08:25:57;;;;;;;5.40;4.13;;;12.60;99.90;;;;;;4976103;28;20481;-63
2022/09/28 08:28:25;;;;;;;5.63;3.57;;;12.70;99.90;;;;;;4977796;28;20454;-64
2022/09/28 08:30:52;;;;;;;7.10;4.07;;;12.70;99.90;;;;;;4975927;28;21008;-64
2022/09/28 08:33:21;;;;;;;7.27;4.40;;;12.70;99.90;;;;;;4975206;28;20451;-64
2022/09/28 08:35:56;;;;;;;5.27;4.30;;;12.80;99.90;;;;;;4975245;28;20542;-64
2022/09/28 08:38:23;;;;;;;4.73;3.60;;;12.70;99.90;;;;;;4975183;28;20442;-64
2022/09/28 08:40:58;;;;;;;5.33;3.73;;;12.70;99.90;;;;;;4974958;28;20479;-64
2022/09/28 08:43:56;;;;;;;7.63;3.97;;;12.70;99.90;;;;;;4974996;28;20891;-64
2022/09/28 08:46:28;;;;;;;3.30;3.10;;;12.60;99.90;;;;;;4971338;28;20486;-64
2022/09/28 08:48:59;;;;;;;4.67;3.57;;;12.60;99.90;;;;;;4975064;28;20439;-64
2022/09/28 08:51:31;;;;;;;4.07;3.00;;;12.50;99.90;;;;;;4975104;28;20482;-64
2022/09/28 08:54:04;;;;;;;3.67;2.93;;;12.60;99.90;;;;;;4974996;28;20501;-64
2022/09/28 08:56:38;;;;;;;6.57;3.97;;;12.70;99.90;;;;;;4975110;28;20501;-64
2022/09/28 08:59:11;;;;;;;4.90;3.20;;;12.90;99.90;;;;;;4975023;28;20502;-64
2022/09/28 09:01:46;;;;;;;3.70;2.60;;;13.10;99.90;;;;;;4974773;28;20486;-64
2022/09/28 09:04:13;;;;;;;5.13;3.17;;;13.40;99.90;;;;;;4975008;28;20497;-64
2022/09/28 09:07:04;;;;;;;5.43;2.70;;;13.60;99.90;;;;;;4975252;28;20509;-64
2022/09/28 09:09:39;;;;;;;5.20;4.43;;;13.90;99.90;;;;;;4975829;28;20439;-64
2022/09/28 09:12:13;;;;;;;5.53;2.30;;;14.10;99.90;;;;;;4982878;28;20485;-64
2022/09/28 09:15:05;;;;;;;2.90;2.60;;;14.10;99.90;;;;;;4981114;28;20442;-64
2022/09/28 09:17:43;;;;;;;2.63;2.37;;;14.10;99.90;;;;;;4978645;28;20444;-64
2022/09/28 09:20:18;;;;;;;2.43;2.23;;;14.10;99.90;;;;;;4978568;28;20447;-64
2022/09/28 09:22:55;;;;;;;5.67;2.60;;;14.10;99.90;;;;;;4978101;28;20981;-64
2022/09/28 09:25:27;;;;;;;2.97;2.67;;;14.10;99.90;;;;;;4978377;28;20509;-64
2022/09/28 09:28:31;;;;;;;3.90;2.30;;;14.10;99.90;;;;;;4978361;28;20447;-64
2022/09/28 09:31:08;;;;;;;3.37;2.50;;;14.20;99.90;;;;;;4978220;28;20561;-64
2022/09/28 09:34:27;;;;;;;4.93;2.60;;;14.20;99.90;;;;;;4978257;28;20485;-64
2022/09/28 09:37:06;;;;;;;3.23;2.50;;;14.20;99.90;;;;;;4961472;28;20454;-63
2022/09/28 09:39:45;;;;;;;3.60;2.37;;;14.20;99.90;;;;;;4978214;28;20442;-64
2022/09/28 09:42:27;;;;;;;6.73;2.60;;;14.20;99.90;;;;;;4978191;28;20556;-64
2022/09/28 09:45:09;;;;;;;2.33;2.13;;;14.20;99.90;;;;;;4977995;28;20470;-64
2022/09/28 09:47:39;;;;;;;4.50;3.20;;;14.30;99.90;;;;;;4977833;28;20439;-64
2022/09/28 09:50:11;;;;;;;2.40;2.20;;;14.40;99.90;;;;;;4978043;28;20455;-64
2022/09/28 09:52:46;;;;;;;4.17;2.30;;;14.50;99.90;;;;;;4977971;28;20526;-64
2022/09/28 09:55:25;;;;;;;2.87;2.47;;;14.70;99.90;;;;;;4978132;28;20442;-64
2022/09/28 09:57:58;;;;;;;3.03;2.50;;;14.80;99.90;;;;;;4977518;28;20447;-64
2022/09/28 10:00:25;;;;;;;3.47;2.30;;;15.10;99.90;;;;;;4977756;28;20458;-64
2022/09/28 10:02:54;;;;;;;2.40;2.00;;;15.60;99.90;;;;;;4977769;28;20583;-64
2022/09/28 10:05:26;;;;;;;4.77;1.90;;;16.20;99.90;;;;;;4977666;28;20458;-64
2022/09/28 10:07:58;;;;;;;2.63;2.30;;;16.70;99.90;;;;;;4977792;28;20527;-64
2022/09/28 10:10:29;;;;;;;4.90;2.93;;;17.00;99.90;;;;;;4977612;28;20439;-64
2022/09/28 10:12:56;;;;;;;2.80;2.00;;;17.10;99.90;;;;;;4977863;28;20431;-64
2022/09/28 10:15:25;;;;;;;4.20;2.37;;;17.20;99.90;;;;;;4977628;28;20521;-64
2022/09/28 10:17:54;;;;;;;4.43;2.83;;;17.40;99.90;;;;;;4977526;28;20465;-64
2022/09/28 10:20:21;;;;;;;3.30;2.20;;;17.60;99.90;;;;;;4977479;28;20466;-63
2022/09/28 10:22:50;;;;;;;2.70;2.40;;;17.80;99.90;;;;;;4976149;28;20474;-63
2022/09/28 10:25:18;;;;;;;2.73;2.53;;;17.90;99.90;;;;;;4977738;28;20473;-64
2022/09/28 10:27:51;;;;;;;4.73;2.30;;;18.10;99.90;;;;;;4978229;28;20458;-62
2022/09/28 10:30:22;;;;;;;5.23;2.50;;;18.30;99.90;;;;;;4980565;28;20509;-63
2022/09/28 10:32:50;;;;;;;3.33;2.20;;;18.50;99.90;;;;;;4980610;28;20439;-63
2022/09/28 10:35:24;;;;;;;3.63;2.60;;;18.50;99.90;;;;;;4980227;28;20509;-64
2022/09/28 10:37:56;;;;;;;2.93;2.03;;;18.40;99.90;;;;;;4977413;28;20455;-63
2022/09/28 10:40:29;;;;;;;5.50;2.60;;;18.40;99.90;;;;;;4976789;28;20910;-65
2022/09/28 10:43:02;;;;;;;3.90;2.50;;;18.10;99.90;;;;;;4977373;28;20482;-65
2022/09/28 10:45:34;;;;;;;6.43;2.60;;;18.00;99.90;;;;;;4979784;28;20439;-64
2022/09/28 10:48:02;;;;;;;2.60;2.40;;;17.80;99.90;;;;;;4976923;28;20793;-64
2022/09/28 10:50:30;;;;;;;2.40;2.20;;;17.60;99.90;;;;;;4976715;28;20455;-64
2022/09/28 10:53:11;;;;;;;2.93;2.20;;;17.50;99.90;;;;;;4976753;28;20502;-64
2022/09/28 10:55:38;;;;;;;3.93;2.43;;;17.50;99.90;;;;;;4976807;28;20501;-64
2022/09/28 10:58:25;;;;;;;3.40;2.30;;;17.40;99.90;;;;;;4976288;28;20517;-64
2022/09/28 11:00:52;;;;;;;3.30;2.23;;;17.30;99.90;;;;;;4976381;28;20560;-63
2022/09/28 11:03:22;;;;;;;1.83;1.73;;;17.30;99.90;;;;;;4976694;28;20474;-63
2022/09/28 11:05:59;;;;;;;2.60;2.23;;;17.20;99.90;;;;;;4976683;28;20442;-63
2022/09/28 11:08:29;;;;;;;2.63;2.30;;;17.20;99.90;;;;;;4976652;28;20443;-64
2022/09/28 11:11:08;;;;;;;4.50;2.00;;;17.10;99.90;;;;;;4976485;28;20493;-63
2022/09/28 11:13:42;;;;;;;3.90;2.03;;;17.10;99.90;;;;;;4976399;28;20439;-64
2022/09/28 11:16:23;;;;;;;2.53;2.20;;;17.20;99.90;;;;;;4977116;28;20462;-63
2022/09/28 11:18:50;;;;;;;1.67;1.57;;;17.10;99.90;;;;;;4976435;28;20445;-63
2022/09/28 11:21:19;;;;;;;4.20;2.20;;;17.20;99.90;;;;;;4976100;28;20625;-63
2022/09/28 11:24:01;;;;;;;5.10;1.90;;;17.30;99.90;;;;;;4975980;28;20474;-64
2022/09/28 11:26:35;;;;;;;2.17;1.70;;;17.40;99.90;;;;;;4976003;28;20439;-63
2022/09/28 11:29:06;;;;;;;2.30;1.80;;;17.20;99.90;;;;;;4976497;28;20442;-63
2022/09/28 11:31:33;;;;;;;5.53;1.80;;;17.30;99.90;;;;;;4976231;28;20483;-64
2022/09/28 11:34:05;;;;;;;2.20;1.70;;;17.40;99.90;;;;;;4975981;28;20461;-64
2022/09/28 11:36:47;;;;;;;2.40;2.23;;;17.50;99.90;;;;;;4976207;28;20533;-64
2022/09/28 11:39:23;;;;;;;1.67;1.57;;;17.50;99.90;;;;;;4976208;28;20474;-63
2022/09/28 11:42:01;;;;;;;1.60;1.50;;;17.60;99.90;;;;;;4976093;28;20529;-64
2022/09/28 11:44:37;;;;;;;1.93;1.60;;;17.70;99.90;;;;;;4975957;28;20517;-64
2022/09/28 11:47:33;;;;;;;2.70;1.97;;;17.80;99.90;;;;;;4975960;28;20442;-64
2022/09/28 11:50:06;;;;;;;4.23;1.90;;;17.60;99.90;;;;;;4965779;28;20459;-63
2022/09/28 11:52:39;;;;;;;5.97;1.87;;;17.50;99.90;;;;;;4976023;28;20533;-63
2022/09/28 11:55:14;;;;;;;3.57;1.77;;;17.40;99.90;;;;;;4975688;28;20911;-63
2022/09/28 11:57:43;;;;;;;2.20;1.57;;;17.20;99.90;;;;;;4975982;28;20521;-64
2022/09/28 12:00:15;;;;;;;3.73;1.73;;;17.30;99.90;;;;;;4975908;28;20454;-64
2022/09/28 12:02:48;;;;;;;1.80;1.40;;;17.40;99.90;;;;;;4975811;28;20467;-64
2022/09/28 12:05:20;;;;;;;2.23;1.57;;;17.60;99.90;;;;;;4978022;28;20443;-64
2022/09/28 12:07:50;;;;;;;2.20;1.70;;;17.80;99.90;;;;;;4982505;28;20443;-64
2022/09/28 12:10:34;;;;;;;6.17;1.90;;;17.70;99.90;;;;;;4979847;28;20435;-64
2022/09/28 12:13:09;;;;;;;1.90;1.53;;;17.80;99.90;;;;;;4975636;28;20903;-64
2022/09/28 12:15:43;;;;;;;3.83;2.37;;;17.90;99.90;;;;;;4976211;28;20443;-63
2022/09/28 12:18:17;;;;;;;5.93;1.57;;;17.90;99.90;;;;;;4975464;28;20446;-64
2022/09/28 12:20:48;;;;;;;3.37;1.80;;;17.90;99.90;;;;;;4975081;28;20973;-63
2022/09/28 12:23:19;;;;;;;2.73;1.80;;;17.80;99.90;;;;;;4975209;28;20475;-63
2022/09/28 12:25:53;;;;;;;3.70;1.80;;;17.60;99.90;;;;;;4975317;28;20501;-64
2022/09/28 12:28:29;;;;;;;3.43;1.77;;;17.40;99.90;;;;;;4975234;28;20446;-64
2022/09/28 12:30:59;;;;;;;3.83;1.73;;;17.10;99.90;;;;;;4974965;28;20554;-63
2022/09/28 12:33:25;;;;;;;2.60;1.40;;;16.90;99.90;;;;;;4975115;28;20488;-63
2022/09/28 12:36:06;;;;;;;4.73;1.50;;;16.90;99.90;;;;;;4975006;28;20583;-64
2022/09/28 12:38:57;;;;;;;2.03;1.40;;;16.90;99.90;;;;;;4975283;28;20442;-64
2022/09/28 12:41:35;;;;;;;1.53;1.30;;;16.80;99.90;;;;;;4974759;28;20978;-64
2022/09/28 12:44:25;;;;;;;6.07;1.40;;;16.70;99.90;;;;;;4975139;28;20467;-64
2022/09/28 12:47:05;;;;;;;2.60;1.43;;;16.80;99.90;;;;;;4974750;28;20985;-65
2022/09/28 12:49:48;;;;;;;4.60;1.73;;;16.90;99.90;;;;;;4975084;28;20450;-65
2022/09/28 12:52:32;;;;;;;3.23;1.40;;;17.00;99.90;;;;;;4975105;28;20479;-64
2022/09/28 12:55:39;;;;;;;1.70;1.40;;;17.10;99.90;;;;;;4977551;28;20439;-63
2022/09/28 12:58:21;;;;;;;2.40;1.77;;;17.00;98.70;;;;;;4972192;28;20463;-64
2022/09/28 13:00:56;;;;;;;1.53;1.43;;;16.80;99.50;;;;;;4976489;28;20490;-63
2022/09/28 13:03:48;;;;;;;1.67;1.57;;;16.80;99.90;;;;;;4976356;28;20533;-64
2022/09/28 13:06:34;;;;;;;6.10;1.57;;;16.80;99.40;;;;;;4974968;28;20501;-64
2022/09/28 13:09:22;;;;;;;1.90;1.43;;;16.90;99.90;;;;;;4974495;28;20489;-63
2022/09/28 13:12:02;;;;;;;2.20;2.00;;;17.00;99.90;;;;;;4974680;28;20489;-64
2022/09/28 13:14:53;;;;;;;2.47;1.20;;;17.00;99.70;;;;;;4974807;28;20482;-63
2022/09/28 13:17:32;;;;;;;1.40;1.30;;;17.10;99.90;;;;;;4974762;28;20438;-64
2022/09/28 13:20:14;;;;;;;3.90;1.83;;;17.10;99.90;;;;;;4974839;28;20498;-63
2022/09/28 13:22:49;;;;;;;1.30;1.20;;;17.20;99.90;;;;;;4975537;28;20446;-63
2022/09/28 13:25:19;;;;;;;2.33;1.27;;;17.10;99.90;;;;;;4974750;28;20527;-63
2022/09/28 13:27:51;;;;;;;1.10;1.10;;;17.20;99.90;;;;;;4974616;28;20800;-63
2022/09/28 13:30:18;;;;;;;2.07;1.60;;;17.10;99.90;;;;;;4974603;28;20462;-63
2022/09/28 13:32:46;;;;;;;2.17;1.27;;;17.00;99.70;;;;;;4974635;28;20510;-63
2022/09/28 13:35:18;;;;;;;4.93;1.40;;;17.00;99.90;;;;;;4974400;28;20450;-63
2022/09/28 13:37:45;;;;;;;3.23;1.53;;;16.90;99.90;;;;;;4974835;28;20443;-63
2022/09/28 13:40:11;;;;;;;3.87;1.70;;;16.90;99.90;;;;;;4974529;28;20821;-63
2022/09/28 13:43:07;;;;;;;1.30;1.20;;;16.90;99.90;;;;;;4974480;28;20474;-64
2022/09/28 13:45:52;;;;;;;1.47;1.37;;;16.90;99.70;;;;;;4974177;28;20435;-63
2022/09/28 13:48:21;;;;;;;3.90;1.70;;;17.00;99.90;;;;;;4974495;28;20447;-64
2022/09/28 13:51:12;;;;;;;2.17;1.47;;;17.00;99.90;;;;;;4974045;28;20985;-64
2022/09/28 13:54:07;;;;;;;2.90;1.43;;;17.10;99.20;;;;;;4974549;28;20435;-62
2022/09/28 13:56:39;;;;;;;1.50;1.40;;;17.10;99.40;;;;;;4975526;28;20450;-63
2022/09/28 13:59:15;;;;;;;1.57;1.17;;;17.10;99.20;;;;;;4977938;28;20435;-63
2022/09/28 14:01:50;;;;;;;2.13;1.43;;;16.90;98.00;;;;;;4977557;28;20895;-63
2022/09/28 14:04:19;;;;;;;7.37;2.10;;;16.60;99.60;;;;;;4977752;28;20497;-62
2022/09/28 14:06:55;;;;;;;2.70;1.43;;;16.60;99.90;;;;;;4977639;28;20516;-64
2022/09/28 14:09:40;;;;;;;1.20;1.10;;;16.60;99.90;;;;;;4977706;28;20445;-64
2022/09/28 14:12:27;;;;;;;2.60;1.20;;;16.60;99.90;;;;;;4977554;28;20480;-64
2022/09/28 14:14:54;;;;;;;3.93;1.83;;;16.60;99.90;;;;;;4977250;28;20450;-63
2022/09/28 14:18:02;;;;;;;1.43;1.30;;;16.70;99.90;;;;;;4977659;28;20458;-63
2022/09/28 14:20:31;;;;;;;3.37;1.50;;;16.70;99.90;;;;;;4977601;28;20449;-63
2022/09/28 14:23:30;;;;;;;3.27;1.63;;;16.70;99.90;;;;;;4977147;28;20481;-63
2022/09/28 14:26:19;;;;;;;2.60;1.37;;;16.70;99.90;;;;;;4977047;28;20442;-62
2022/09/28 14:28:56;;;;;;;2.00;1.37;;;16.70;99.90;;;;;;4977400;28;20443;-64
2022/09/28 14:31:26;;;;;;;2.40;1.17;;;16.80;99.90;;;;;;4977192;28;20474;-64
2022/09/28 14:33:59;;;;;;;2.37;1.43;;;16.70;99.60;;;;;;4976947;28;20458;-64
2022/09/28 14:42:16;;;;;;;2.10;1.50;;;16.80;99.90;;;;;;4977444;28;20955;-63
2022/09/28 14:45:16;;;;;;;2.07;1.87;;;16.80;99.90;;;;;;4977003;28;20521;-64
2022/09/28 14:48:02;;;;;;;3.10;1.43;;;16.70;99.90;;;;;;4979877;28;20957;-64
2022/09/28 14:50:29;;;;;;;4.27;1.30;;;16.60;99.80;;;;;;4980092;28;20431;-63
2022/09/28 14:53:03;;;;;;;1.80;1.70;;;16.40;99.20;;;;;;4980526;28;20446;-63
2022/09/28 14:55:34;;;;;;;2.23;1.20;;;16.40;99.90;;;;;;4981159;28;20486;-63
2022/09/28 14:58:04;;;;;;;1.67;1.20;;;16.30;99.90;;;;;;4978823;28;20530;-63
2022/09/28 15:00:31;;;;;;;2.17;1.30;;;16.30;99.60;;;;;;4977350;28;20509;-63
2022/09/28 15:03:02;;;;;;;2.70;1.40;;;16.10;99.90;;;;;;4979041;28;20501;-63
2022/09/28 15:05:34;;;;;;;1.80;1.20;;;16.00;99.30;;;;;;4977408;28;20541;-63
2022/09/28 15:08:01;;;;;;;1.27;1.13;;;15.90;99.90;;;;;;4975851;28;20977;-63
2022/09/28 15:10:32;;;;;;;2.53;1.27;;;15.70;99.80;;;;;;4976066;28;20830;-63
2022/09/28 15:13:01;;;;;;;2.30;1.30;;;15.60;99.50;;;;;;4976893;28;20497;-63
2022/09/28 15:15:32;;;;;;;2.00;1.30;;;15.50;99.90;;;;;;4976476;28;20482;-63
2022/09/28 15:18:18;;;;;;;2.67;1.20;;;15.40;99.90;;;;;;4976389;28;20443;-64
2022/09/28 15:20:47;;;;;;;3.50;1.30;;;15.40;99.90;;;;;;4976104;28;20533;-64
2022/09/28 15:23:26;;;;;;;3.73;1.33;;;15.30;99.90;;;;;;4978167;28;20520;-63
2022/09/28 15:25:54;;;;;;;2.80;1.67;;;15.30;99.90;;;;;;4979536;28;20435;-64
2022/09/28 15:28:24;;;;;;;1.90;1.17;;;15.30;99.90;;;;;;4978579;28;20431;-64
2022/09/28 15:30:59;;;;;;;2.07;1.50;;;15.30;99.90;;;;;;4976807;28;20823;-64
2022/09/28 15:36:18;;;;;;;2.80;1.70;;;15.40;99.90;;;;;;4976727;28;20418;-63
2022/09/28 15:38:52;;;;;;;1.70;0.90;;;15.30;99.90;;;;;;4976114;28;20435;-64
2022/09/28 15:41:19;;;;;;;1.90;1.17;;;15.20;99.90;;;;;;4976444;28;20474;-65
2022/09/28 15:44:06;;;;;;;3.40;0.90;;;15.20;99.90;;;;;;4975639;28;20537;-64
2022/09/28 15:46:36;;;;;;;1.90;1.40;;;15.10;99.90;;;;;;4975801;28;20443;-64
2022/09/28 15:49:03;;;;;;;3.93;1.47;;;15.00;99.90;;;;;;4975818;28;20442;-64
2022/09/28 15:51:32;;;;;;;0.97;0.77;;;14.90;99.90;;;;;;4975396;28;21001;-62
2022/09/28 15:54:03;;;;;;;1.57;1.00;;;14.70;99.90;;;;;;4975703;28;20557;-62
2022/09/28 15:56:30;;;;;;;1.77;1.40;;;14.60;99.90;;;;;;4975715;28;20443;-63
2022/09/28 15:59:25;;;;;;;3.53;1.23;;;14.60;99.90;;;;;;4975676;28;21060;-62
2022/09/28 16:02:03;;;;;;;2.37;1.03;;;14.50;99.90;;;;;;4975191;28;20907;-63
2022/09/28 16:04:36;;;;;;;3.50;1.43;;;14.40;99.90;;;;;;4976037;28;20521;-62
2022/09/28 16:07:22;;;;;;;1.80;1.10;;;14.40;99.90;;;;;;4975537;28;20439;-62
2022/09/28 16:10:00;;;;;;;7.30;1.73;;;14.40;99.90;;;;;;4975415;28;20439;-63
2022/09/28 16:12:33;;;;;;;2.07;1.63;;;14.40;99.90;;;;;;4975270;28;20479;-63
2022/09/28 16:15:04;;;;;;;2.17;1.33;;;14.30;99.90;;;;;;4975158;28;20435;-63
2022/09/28 16:17:35;;;;;;;2.93;1.20;;;14.30;99.90;;;;;;4975280;28;20494;-63
2022/09/28 16:20:04;;;;;;;2.10;1.53;;;14.20;99.90;;;;;;4974362;28;20525;-64
2022/09/28 16:22:32;;;;;;;3.40;1.37;;;14.20;99.90;;;;;;4974836;28;20974;-63
2022/09/28 16:25:00;;;;;;;2.80;1.60;;;14.10;99.90;;;;;;4974769;28;21060;-64
2022/09/28 16:27:29;;;;;;;4.50;1.43;;;14.10;99.90;;;;;;4975312;28;20459;-63
2022/09/28 16:30:16;;;;;;;1.77;1.67;;;14.10;99.90;;;;;;4975036;28;20455;-63
2022/09/28 16:32:50;;;;;;;2.03;1.80;;;14.10;99.90;;;;;;4974653;28;20459;-63
2022/09/28 16:35:22;;;;;;;2.87;1.33;;;14.10;99.90;;;;;;4975115;28;20849;-63
2022/09/28 16:37:57;;;;;;;3.03;1.20;;;14.00;99.90;;;;;;4975010;28;20439;-63
2022/09/28 16:40:24;;;;;;;1.40;1.27;;;14.00;99.90;;;;;;4975030;28;20439;-63
2022/09/28 16:42:51;;;;;;;3.10;1.60;;;14.00;99.90;;;;;;4975041;28;20450;-62
2022/09/28 16:45:21;;;;;;;1.40;1.30;;;14.00;99.90;;;;;;4975647;28;20894;-61
2022/09/28 16:47:51;;;;;;;1.40;1.20;;;13.90;99.90;;;;;;4975791;28;20482;-64
2022/09/28 16:50:19;;;;;;;3.23;1.77;;;13.90;99.90;;;;;;4975385;28;20443;-64
2022/09/28 16:55:30;;;;;;;3.00;1.90;;;13.80;99.90;;;;;;4974781;28;20493;-63
2022/09/28 16:57:57;;;;;;;3.60;2.43;;;13.80;99.90;;;;;;4975015;28;20460;-64
2022/09/28 17:00:25;;;;;;;2.43;1.70;;;13.70;99.90;;;;;;4974837;28;20458;-64
2022/09/28 17:02:56;;;;;;;4.23;1.70;;;13.70;99.90;;;;;;4974985;28;20443;-63
2022/09/28 17:05:22;;;;;;;2.10;2.00;;;13.60;99.90;;;;;;4974946;28;20529;-63
2022/09/28 17:07:53;;;;;;;2.17;1.97;;;13.60;99.90;;;;;;4974906;28;20482;-63
2022/09/28 17:10:25;;;;;;;2.30;1.70;;;13.50;99.90;;;;;;4975192;28;20506;-63
2022/09/28 17:12:52;;;;;;;2.50;1.80;;;13.40;99.90;;;;;;4975092;28;20498;-64
2022/09/28 17:15:18;;;;;;;1.80;1.60;;;13.40;99.90;;;;;;4975063;28;20931;-63
2022/09/28 17:17:45;;;;;;;2.13;1.73;;;13.30;99.90;;;;;;4975025;28;20455;-63
2022/09/28 17:20:23;;;;;;;2.73;1.57;;;13.20;99.90;;;;;;4975212;28;20458;-63
2022/09/28 17:22:50;;;;;;;1.90;1.50;;;13.10;99.90;;;;;;4979529;28;20442;-63
2022/09/28 17:25:17;;;;;;;3.70;1.63;;;13.00;99.90;;;;;;4978867;28;20481;-62
2022/09/28 17:27:46;;;;;;;3.70;1.63;;;13.00;99.90;;;;;;4979287;28;20458;-63